sensor_id;sensor_type;location;lat;lon;timestamp;P1;durP1;ratioP1;P2;durP2;ratioP2
75554;SDS011;66087;53.126;17.960;2023-08-06T00:01:09;4.80;;;2.20;;
75554;SDS011;66087;53.126;17.960;2023-08-06T00:03:48;6.30;;;2.70;;
75554;SDS011;66087;53.126;17.960;2023-08-06T00:06:14;4.20;;;2.10;;
75554;SDS011;66087;53.126;17.960;2023-08-06T00:08:41;6.10;;;2.90;;
75554;SDS011;66087;53.126;17.960;2023-08-06T00:11:08;5.00;;;2.60;;
75554;SDS011;66087;53.126;17.960;2023-08-06T00:13:34;6.80;;;2.60;;
75554;SDS011;66087;53.126;17.960;2023-08-06T00:16:09;8.10;;;2.90;;
75554;SDS011;66087;53.126;17.960;2023-08-06T00:18:36;5.40;;;2.40;;
75554;SDS011;66087;53.126;17.960;2023-08-06T00:21:03;5.30;;;3.00;;
75554;SDS011;66087;53.126;17.960;2023-08-06T00:23:30;5.80;;;2.90;;
75554;SDS011;66087;53.126;17.960;2023-08-06T00:25:58;5.00;;;2.50;;
75554;SDS011;66087;53.126;17.960;2023-08-06T00:28:24;6.40;;;3.30;;
75554;SDS011;66087;53.126;17.960;2023-08-06T00:30:54;4.60;;;2.80;;
75554;SDS011;66087;53.126;17.960;2023-08-06T00:33:22;6.80;;;3.00;;
75554;SDS011;66087;53.126;17.960;2023-08-06T00:35:51;4.30;;;2.70;;
75554;SDS011;66087;53.126;17.960;2023-08-06T00:38:17;6.40;;;3.20;;
75554;SDS011;66087;53.126;17.960;2023-08-06T00:40:45;5.10;;;2.70;;
75554;SDS011;66087;53.126;17.960;2023-08-06T00:43:14;5.60;;;3.00;;
75554;SDS011;66087;53.126;17.960;2023-08-06T00:45:41;7.30;;;3.30;;
75554;SDS011;66087;53.126;17.960;2023-08-06T00:48:08;6.10;;;2.70;;
75554;SDS011;66087;53.126;17.960;2023-08-06T00:50:35;6.40;;;3.10;;
75554;SDS011;66087;53.126;17.960;2023-08-06T00:53:02;6.20;;;3.00;;
75554;SDS011;66087;53.126;17.960;2023-08-06T00:55:30;6.00;;;3.10;;
75554;SDS011;66087;53.126;17.960;2023-08-06T00:57:57;6.80;;;3.00;;
75554;SDS011;66087;53.126;17.960;2023-08-06T01:00:24;6.20;;;3.20;;
75554;SDS011;66087;53.126;17.960;2023-08-06T01:02:52;6.70;;;3.20;;
75554;SDS011;66087;53.126;17.960;2023-08-06T01:05:20;7.90;;;2.90;;
75554;SDS011;66087;53.126;17.960;2023-08-06T01:07:58;6.20;;;2.90;;
75554;SDS011;66087;53.126;17.960;2023-08-06T01:10:43;6.10;;;3.20;;
75554;SDS011;66087;53.126;17.960;2023-08-06T01:13:24;6.00;;;3.60;;
75554;SDS011;66087;53.126;17.960;2023-08-06T01:15:59;6.30;;;3.40;;
75554;SDS011;66087;53.126;17.960;2023-08-06T01:18:28;6.60;;;2.90;;
75554;SDS011;66087;53.126;17.960;2023-08-06T01:20:55;6.30;;;3.50;;
75554;SDS011;66087;53.126;17.960;2023-08-06T01:23:24;5.30;;;3.10;;
75554;SDS011;66087;53.126;17.960;2023-08-06T01:26:29;3.50;;;1.90;;
75554;SDS011;66087;53.126;17.960;2023-08-06T01:29:03;4.90;;;2.50;;
75554;SDS011;66087;53.126;17.960;2023-08-06T01:31:46;4.70;;;2.70;;
75554;SDS011;66087;53.126;17.960;2023-08-06T01:34:18;6.20;;;3.20;;
75554;SDS011;66087;53.126;17.960;2023-08-06T01:36:53;6.20;;;3.10;;
75554;SDS011;66087;53.126;17.960;2023-08-06T01:39:19;5.20;;;2.70;;
75554;SDS011;66087;53.126;17.960;2023-08-06T01:41:48;4.80;;;2.60;;
75554;SDS011;66087;53.126;17.960;2023-08-06T01:44:15;5.50;;;2.40;;
75554;SDS011;66087;53.126;17.960;2023-08-06T01:46:43;5.70;;;2.50;;
75554;SDS011;66087;53.126;17.960;2023-08-06T01:49:10;5.40;;;3.10;;
75554;SDS011;66087;53.126;17.960;2023-08-06T01:51:37;5.10;;;2.60;;
75554;SDS011;66087;53.126;17.960;2023-08-06T01:54:09;4.60;;;2.40;;
75554;SDS011;66087;53.126;17.960;2023-08-06T01:56:39;5.60;;;2.70;;
75554;SDS011;66087;53.126;17.960;2023-08-06T01:59:22;6.00;;;2.70;;
75554;SDS011;66087;53.126;17.960;2023-08-06T02:01:52;4.60;;;2.30;;
75554;SDS011;66087;53.126;17.960;2023-08-06T02:04:19;5.70;;;2.40;;
75554;SDS011;66087;53.126;17.960;2023-08-06T02:06:45;5.70;;;3.00;;
75554;SDS011;66087;53.126;17.960;2023-08-06T02:09:12;5.10;;;2.90;;
75554;SDS011;66087;53.126;17.960;2023-08-06T02:11:39;6.20;;;3.20;;
75554;SDS011;66087;53.126;17.960;2023-08-06T02:14:07;5.70;;;2.70;;
75554;SDS011;66087;53.126;17.960;2023-08-06T02:16:36;5.80;;;3.00;;
75554;SDS011;66087;53.126;17.960;2023-08-06T02:19:02;4.90;;;2.30;;
75554;SDS011;66087;53.126;17.960;2023-08-06T02:21:29;4.80;;;2.20;;
75554;SDS011;66087;53.126;17.960;2023-08-06T02:23:56;5.60;;;2.40;;
75554;SDS011;66087;53.126;17.960;2023-08-06T02:26:23;5.90;;;2.70;;
75554;SDS011;66087;53.126;17.960;2023-08-06T02:28:50;4.20;;;2.10;;
75554;SDS011;66087;53.126;17.960;2023-08-06T02:31:17;4.60;;;2.10;;
75554;SDS011;66087;53.126;17.960;2023-08-06T02:33:44;4.30;;;2.20;;
75554;SDS011;66087;53.126;17.960;2023-08-06T02:36:11;4.50;;;2.60;;
75554;SDS011;66087;53.126;17.960;2023-08-06T02:38:38;3.90;;;2.00;;
75554;SDS011;66087;53.126;17.960;2023-08-06T02:41:05;4.30;;;1.90;;
75554;SDS011;66087;53.126;17.960;2023-08-06T02:43:32;4.50;;;1.70;;
75554;SDS011;66087;53.126;17.960;2023-08-06T02:45:59;4.90;;;2.60;;
75554;SDS011;66087;53.126;17.960;2023-08-06T02:48:27;5.10;;;2.20;;
75554;SDS011;66087;53.126;17.960;2023-08-06T02:50:56;4.90;;;2.40;;
75554;SDS011;66087;53.126;17.960;2023-08-06T02:53:27;4.40;;;2.30;;
75554;SDS011;66087;53.126;17.960;2023-08-06T02:55:59;4.80;;;2.30;;
75554;SDS011;66087;53.126;17.960;2023-08-06T02:58:31;3.90;;;2.00;;
75554;SDS011;66087;53.126;17.960;2023-08-06T03:01:13;4.20;;;1.80;;
75554;SDS011;66087;53.126;17.960;2023-08-06T03:03:47;4.80;;;2.10;;
75554;SDS011;66087;53.126;17.960;2023-08-06T03:06:19;5.30;;;2.70;;
75554;SDS011;66087;53.126;17.960;2023-08-06T03:08:48;5.70;;;2.50;;
75554;SDS011;66087;53.126;17.960;2023-08-06T03:11:15;4.70;;;2.10;;
75554;SDS011;66087;53.126;17.960;2023-08-06T03:13:52;4.80;;;2.30;;
75554;SDS011;66087;53.126;17.960;2023-08-06T03:16:26;4.90;;;2.20;;
75554;SDS011;66087;53.126;17.960;2023-08-06T03:18:54;5.70;;;2.40;;
75554;SDS011;66087;53.126;17.960;2023-08-06T03:21:22;3.60;;;1.90;;
75554;SDS011;66087;53.126;17.960;2023-08-06T03:23:49;4.30;;;2.40;;
75554;SDS011;66087;53.126;17.960;2023-08-06T03:26:19;5.30;;;2.30;;
75554;SDS011;66087;53.126;17.960;2023-08-06T03:28:49;4.20;;;2.40;;
75554;SDS011;66087;53.126;17.960;2023-08-06T03:31:17;4.60;;;2.40;;
75554;SDS011;66087;53.126;17.960;2023-08-06T03:33:45;4.30;;;2.20;;
75554;SDS011;66087;53.126;17.960;2023-08-06T03:36:18;4.00;;;1.80;;
75554;SDS011;66087;53.126;17.960;2023-08-06T03:38:44;5.60;;;2.60;;
75554;SDS011;66087;53.126;17.960;2023-08-06T03:41:14;4.70;;;2.30;;
75554;SDS011;66087;53.126;17.960;2023-08-06T03:43:46;4.40;;;2.30;;
75554;SDS011;66087;53.126;17.960;2023-08-06T03:46:18;4.40;;;2.30;;
75554;SDS011;66087;53.126;17.960;2023-08-06T03:48:44;4.60;;;2.10;;
75554;SDS011;66087;53.126;17.960;2023-08-06T03:51:12;4.80;;;2.60;;
75554;SDS011;66087;53.126;17.960;2023-08-06T03:53:45;5.50;;;2.80;;
75554;SDS011;66087;53.126;17.960;2023-08-06T03:56:12;5.70;;;2.30;;
75554;SDS011;66087;53.126;17.960;2023-08-06T03:58:40;5.40;;;2.30;;
75554;SDS011;66087;53.126;17.960;2023-08-06T04:01:07;4.20;;;2.20;;
75554;SDS011;66087;53.126;17.960;2023-08-06T04:03:45;4.10;;;2.20;;
75554;SDS011;66087;53.126;17.960;2023-08-06T04:06:17;5.50;;;2.60;;
75554;SDS011;66087;53.126;17.960;2023-08-06T04:08:44;3.20;;;1.90;;
75554;SDS011;66087;53.126;17.960;2023-08-06T04:11:13;4.10;;;2.20;;
75554;SDS011;66087;53.126;17.960;2023-08-06T04:13:43;7.10;;;2.00;;
75554;SDS011;66087;53.126;17.960;2023-08-06T04:16:10;5.00;;;2.60;;
75554;SDS011;66087;53.126;17.960;2023-08-06T04:18:37;6.20;;;3.10;;
75554;SDS011;66087;53.126;17.960;2023-08-06T04:21:04;5.60;;;2.80;;
75554;SDS011;66087;53.126;17.960;2023-08-06T04:23:35;5.10;;;2.30;;
75554;SDS011;66087;53.126;17.960;2023-08-06T04:26:05;5.80;;;2.70;;
75554;SDS011;66087;53.126;17.960;2023-08-06T04:28:34;4.90;;;2.40;;
75554;SDS011;66087;53.126;17.960;2023-08-06T04:31:01;5.40;;;2.50;;
75554;SDS011;66087;53.126;17.960;2023-08-06T04:33:28;4.00;;;2.10;;
75554;SDS011;66087;53.126;17.960;2023-08-06T04:35:59;3.90;;;1.60;;
75554;SDS011;66087;53.126;17.960;2023-08-06T04:38:26;4.10;;;2.00;;
75554;SDS011;66087;53.126;17.960;2023-08-06T04:40:54;5.00;;;2.40;;
75554;SDS011;66087;53.126;17.960;2023-08-06T04:43:21;4.20;;;2.20;;
75554;SDS011;66087;53.126;17.960;2023-08-06T04:45:50;5.20;;;2.30;;
75554;SDS011;66087;53.126;17.960;2023-08-06T04:48:17;4.70;;;2.40;;
75554;SDS011;66087;53.126;17.960;2023-08-06T04:50:47;4.80;;;2.00;;
75554;SDS011;66087;53.126;17.960;2023-08-06T04:53:15;3.90;;;2.00;;
75554;SDS011;66087;53.126;17.960;2023-08-06T04:55:43;4.60;;;2.30;;
75554;SDS011;66087;53.126;17.960;2023-08-06T04:58:10;5.40;;;2.70;;
75554;SDS011;66087;53.126;17.960;2023-08-06T05:00:37;4.80;;;2.50;;
75554;SDS011;66087;53.126;17.960;2023-08-06T05:03:04;3.30;;;1.90;;
75554;SDS011;66087;53.126;17.960;2023-08-06T05:05:33;3.60;;;2.10;;
75554;SDS011;66087;53.126;17.960;2023-08-06T05:07:59;3.20;;;1.70;;
75554;SDS011;66087;53.126;17.960;2023-08-06T05:10:26;3.20;;;1.90;;
75554;SDS011;66087;53.126;17.960;2023-08-06T05:12:54;3.70;;;1.50;;
75554;SDS011;66087;53.126;17.960;2023-08-06T05:15:21;3.80;;;1.70;;
75554;SDS011;66087;53.126;17.960;2023-08-06T05:17:47;2.70;;;1.30;;
75554;SDS011;66087;53.126;17.960;2023-08-06T05:20:14;3.90;;;2.10;;
75554;SDS011;66087;53.126;17.960;2023-08-06T05:22:41;2.60;;;1.80;;
75554;SDS011;66087;53.126;17.960;2023-08-06T05:25:23;3.40;;;1.70;;
75554;SDS011;66087;53.126;17.960;2023-08-06T05:27:53;4.10;;;1.90;;
75554;SDS011;66087;53.126;17.960;2023-08-06T05:30:19;3.60;;;1.40;;
75554;SDS011;66087;53.126;17.960;2023-08-06T05:32:47;4.80;;;2.20;;
75554;SDS011;66087;53.126;17.960;2023-08-06T05:35:17;3.70;;;1.70;;
75554;SDS011;66087;53.126;17.960;2023-08-06T05:37:48;4.50;;;2.00;;
75554;SDS011;66087;53.126;17.960;2023-08-06T05:40:16;3.60;;;2.00;;
75554;SDS011;66087;53.126;17.960;2023-08-06T05:42:44;4.70;;;2.50;;
75554;SDS011;66087;53.126;17.960;2023-08-06T05:45:11;4.70;;;2.80;;
75554;SDS011;66087;53.126;17.960;2023-08-06T05:47:40;3.70;;;1.80;;
75554;SDS011;66087;53.126;17.960;2023-08-06T05:50:07;4.90;;;2.60;;
75554;SDS011;66087;53.126;17.960;2023-08-06T05:52:35;4.40;;;2.20;;
75554;SDS011;66087;53.126;17.960;2023-08-06T05:55:02;4.60;;;2.80;;
75554;SDS011;66087;53.126;17.960;2023-08-06T05:57:31;4.60;;;2.40;;
75554;SDS011;66087;53.126;17.960;2023-08-06T06:00:02;4.10;;;2.00;;
75554;SDS011;66087;53.126;17.960;2023-08-06T06:02:39;5.10;;;2.70;;
75554;SDS011;66087;53.126;17.960;2023-08-06T06:05:05;4.50;;;2.10;;
75554;SDS011;66087;53.126;17.960;2023-08-06T06:07:35;5.50;;;2.30;;
75554;SDS011;66087;53.126;17.960;2023-08-06T06:10:03;5.10;;;2.50;;
75554;SDS011;66087;53.126;17.960;2023-08-06T06:12:42;4.40;;;2.50;;
75554;SDS011;66087;53.126;17.960;2023-08-06T06:15:09;4.70;;;2.70;;
75554;SDS011;66087;53.126;17.960;2023-08-06T06:17:36;4.00;;;2.00;;
75554;SDS011;66087;53.126;17.960;2023-08-06T06:20:03;4.70;;;2.50;;
75554;SDS011;66087;53.126;17.960;2023-08-06T06:22:31;5.10;;;3.10;;
75554;SDS011;66087;53.126;17.960;2023-08-06T06:24:58;5.10;;;2.60;;
75554;SDS011;66087;53.126;17.960;2023-08-06T06:27:24;5.50;;;2.80;;
75554;SDS011;66087;53.126;17.960;2023-08-06T06:29:51;7.60;;;3.90;;
75554;SDS011;66087;53.126;17.960;2023-08-06T06:32:23;5.60;;;3.20;;
75554;SDS011;66087;53.126;17.960;2023-08-06T06:34:51;7.10;;;2.90;;
75554;SDS011;66087;53.126;17.960;2023-08-06T06:37:22;5.40;;;3.40;;
75554;SDS011;66087;53.126;17.960;2023-08-06T06:39:49;8.70;;;4.00;;
75554;SDS011;66087;53.126;17.960;2023-08-06T06:42:16;4.60;;;2.50;;
75554;SDS011;66087;53.126;17.960;2023-08-06T06:44:44;6.70;;;3.60;;
75554;SDS011;66087;53.126;17.960;2023-08-06T06:47:11;7.10;;;4.30;;
75554;SDS011;66087;53.126;17.960;2023-08-06T06:49:38;6.90;;;3.90;;
75554;SDS011;66087;53.126;17.960;2023-08-06T06:52:04;7.50;;;3.40;;
75554;SDS011;66087;53.126;17.960;2023-08-06T06:54:31;6.40;;;3.90;;
75554;SDS011;66087;53.126;17.960;2023-08-06T06:57:00;7.00;;;4.10;;
75554;SDS011;66087;53.126;17.960;2023-08-06T06:59:27;8.80;;;5.10;;
75554;SDS011;66087;53.126;17.960;2023-08-06T07:01:54;8.00;;;4.20;;
75554;SDS011;66087;53.126;17.960;2023-08-06T07:04:21;8.20;;;4.30;;
75554;SDS011;66087;53.126;17.960;2023-08-06T07:06:48;6.80;;;3.80;;
75554;SDS011;66087;53.126;17.960;2023-08-06T07:09:15;7.30;;;4.20;;
75554;SDS011;66087;53.126;17.960;2023-08-06T07:11:41;7.00;;;4.50;;
75554;SDS011;66087;53.126;17.960;2023-08-06T07:14:12;6.30;;;3.20;;
75554;SDS011;66087;53.126;17.960;2023-08-06T07:16:59;5.20;;;3.20;;
75554;SDS011;66087;53.126;17.960;2023-08-06T07:19:26;8.40;;;3.80;;
75554;SDS011;66087;53.126;17.960;2023-08-06T07:22:00;7.40;;;3.20;;
75554;SDS011;66087;53.126;17.960;2023-08-06T07:24:26;9.50;;;4.10;;
75554;SDS011;66087;53.126;17.960;2023-08-06T07:26:56;5.80;;;3.40;;
75554;SDS011;66087;53.126;17.960;2023-08-06T07:29:23;6.70;;;4.00;;
75554;SDS011;66087;53.126;17.960;2023-08-06T07:31:50;7.20;;;4.00;;
75554;SDS011;66087;53.126;17.960;2023-08-06T07:34:17;6.10;;;3.70;;
75554;SDS011;66087;53.126;17.960;2023-08-06T07:36:44;8.00;;;4.00;;
75554;SDS011;66087;53.126;17.960;2023-08-06T07:39:12;5.80;;;3.30;;
75554;SDS011;66087;53.126;17.960;2023-08-06T07:41:39;4.50;;;2.80;;
75554;SDS011;66087;53.126;17.960;2023-08-06T07:44:06;5.90;;;2.90;;
75554;SDS011;66087;53.126;17.960;2023-08-06T07:46:34;7.30;;;3.60;;
75554;SDS011;66087;53.126;17.960;2023-08-06T07:49:01;6.70;;;3.60;;
75554;SDS011;66087;53.126;17.960;2023-08-06T07:51:29;8.20;;;4.00;;
75554;SDS011;66087;53.126;17.960;2023-08-06T07:53:56;6.60;;;3.80;;
75554;SDS011;66087;53.126;17.960;2023-08-06T07:56:23;7.50;;;4.00;;
75554;SDS011;66087;53.126;17.960;2023-08-06T07:58:49;5.30;;;2.80;;
75554;SDS011;66087;53.126;17.960;2023-08-06T08:01:16;8.50;;;3.90;;
75554;SDS011;66087;53.126;17.960;2023-08-06T08:03:47;6.10;;;3.10;;
75554;SDS011;66087;53.126;17.960;2023-08-06T08:06:14;6.10;;;3.20;;
75554;SDS011;66087;53.126;17.960;2023-08-06T08:08:40;6.50;;;3.30;;
75554;SDS011;66087;53.126;17.960;2023-08-06T08:11:09;4.90;;;2.70;;
75554;SDS011;66087;53.126;17.960;2023-08-06T08:13:36;5.60;;;3.50;;
75554;SDS011;66087;53.126;17.960;2023-08-06T08:16:03;6.00;;;3.20;;
75554;SDS011;66087;53.126;17.960;2023-08-06T08:18:30;6.00;;;2.90;;
75554;SDS011;66087;53.126;17.960;2023-08-06T08:21:02;6.00;;;3.00;;
75554;SDS011;66087;53.126;17.960;2023-08-06T08:23:29;8.00;;;3.70;;
75554;SDS011;66087;53.126;17.960;2023-08-06T08:25:58;6.90;;;3.30;;
75554;SDS011;66087;53.126;17.960;2023-08-06T08:28:26;7.20;;;4.00;;
75554;SDS011;66087;53.126;17.960;2023-08-06T08:30:53;6.70;;;3.40;;
75554;SDS011;66087;53.126;17.960;2023-08-06T08:33:21;6.40;;;3.40;;
75554;SDS011;66087;53.126;17.960;2023-08-06T08:35:53;5.80;;;3.50;;
75554;SDS011;66087;53.126;17.960;2023-08-06T08:38:20;5.70;;;3.30;;
75554;SDS011;66087;53.126;17.960;2023-08-06T08:40:47;6.10;;;3.20;;
75554;SDS011;66087;53.126;17.960;2023-08-06T08:43:21;6.40;;;3.10;;
75554;SDS011;66087;53.126;17.960;2023-08-06T08:45:50;5.00;;;2.20;;
75554;SDS011;66087;53.126;17.960;2023-08-06T08:48:20;5.70;;;3.50;;
75554;SDS011;66087;53.126;17.960;2023-08-06T08:50:49;5.90;;;3.20;;
75554;SDS011;66087;53.126;17.960;2023-08-06T08:53:17;6.10;;;3.50;;
75554;SDS011;66087;53.126;17.960;2023-08-06T08:55:47;6.50;;;3.30;;
75554;SDS011;66087;53.126;17.960;2023-08-06T08:58:18;5.70;;;3.30;;
75554;SDS011;66087;53.126;17.960;2023-08-06T09:00:46;5.00;;;3.00;;
75554;SDS011;66087;53.126;17.960;2023-08-06T09:03:15;5.90;;;3.20;;
75554;SDS011;66087;53.126;17.960;2023-08-06T09:05:44;7.90;;;3.30;;
75554;SDS011;66087;53.126;17.960;2023-08-06T09:08:18;5.20;;;3.10;;
75554;SDS011;66087;53.126;17.960;2023-08-06T09:10:49;5.80;;;3.20;;
75554;SDS011;66087;53.126;17.960;2023-08-06T09:13:18;8.00;;;3.60;;
75554;SDS011;66087;53.126;17.960;2023-08-06T09:15:46;6.70;;;4.20;;
75554;SDS011;66087;53.126;17.960;2023-08-06T09:18:14;6.00;;;3.70;;
75554;SDS011;66087;53.126;17.960;2023-08-06T09:20:40;7.00;;;3.90;;
75554;SDS011;66087;53.126;17.960;2023-08-06T09:23:14;5.40;;;3.30;;
75554;SDS011;66087;53.126;17.960;2023-08-06T09:25:41;6.50;;;3.80;;
75554;SDS011;66087;53.126;17.960;2023-08-06T09:28:11;6.80;;;3.80;;
75554;SDS011;66087;53.126;17.960;2023-08-06T09:30:38;7.00;;;3.70;;
75554;SDS011;66087;53.126;17.960;2023-08-06T09:33:08;8.00;;;4.20;;
75554;SDS011;66087;53.126;17.960;2023-08-06T09:35:36;6.90;;;4.00;;
75554;SDS011;66087;53.126;17.960;2023-08-06T09:38:06;6.70;;;3.50;;
75554;SDS011;66087;53.126;17.960;2023-08-06T09:40:38;7.20;;;4.60;;
75554;SDS011;66087;53.126;17.960;2023-08-06T09:43:06;6.90;;;4.20;;
75554;SDS011;66087;53.126;17.960;2023-08-06T09:45:35;8.10;;;4.40;;
75554;SDS011;66087;53.126;17.960;2023-08-06T09:48:04;7.30;;;3.60;;
75554;SDS011;66087;53.126;17.960;2023-08-06T09:50:39;8.30;;;4.60;;
75554;SDS011;66087;53.126;17.960;2023-08-06T09:53:07;8.90;;;4.90;;
75554;SDS011;66087;53.126;17.960;2023-08-06T09:55:37;8.20;;;5.50;;
75554;SDS011;66087;53.126;17.960;2023-08-06T09:58:05;8.50;;;4.80;;
75554;SDS011;66087;53.126;17.960;2023-08-06T10:00:36;8.40;;;5.00;;
75554;SDS011;66087;53.126;17.960;2023-08-06T10:03:02;8.40;;;4.50;;
75554;SDS011;66087;53.126;17.960;2023-08-06T10:05:29;8.30;;;5.10;;
75554;SDS011;66087;53.126;17.960;2023-08-06T10:07:59;7.50;;;4.60;;
75554;SDS011;66087;53.126;17.960;2023-08-06T10:10:40;6.50;;;4.00;;
75554;SDS011;66087;53.126;17.960;2023-08-06T10:13:14;8.50;;;4.90;;
75554;SDS011;66087;53.126;17.960;2023-08-06T10:15:44;6.70;;;3.80;;
75554;SDS011;66087;53.126;17.960;2023-08-06T10:18:10;7.50;;;3.90;;
75554;SDS011;66087;53.126;17.960;2023-08-06T10:20:38;6.00;;;3.70;;
75554;SDS011;66087;53.126;17.960;2023-08-06T10:23:05;5.30;;;2.80;;
75554;SDS011;66087;53.126;17.960;2023-08-06T10:25:34;6.50;;;3.20;;
75554;SDS011;66087;53.126;17.960;2023-08-06T10:28:09;6.60;;;3.80;;
75554;SDS011;66087;53.126;17.960;2023-08-06T10:30:41;5.80;;;3.70;;
75554;SDS011;66087;53.126;17.960;2023-08-06T10:33:10;5.40;;;3.20;;
75554;SDS011;66087;53.126;17.960;2023-08-06T10:36:00;5.30;;;3.00;;
75554;SDS011;66087;53.126;17.960;2023-08-06T10:38:27;6.50;;;3.20;;
75554;SDS011;66087;53.126;17.960;2023-08-06T10:41:02;5.80;;;3.60;;
75554;SDS011;66087;53.126;17.960;2023-08-06T10:43:32;5.60;;;3.50;;
75554;SDS011;66087;53.126;17.960;2023-08-06T10:46:01;5.40;;;3.80;;
75554;SDS011;66087;53.126;17.960;2023-08-06T10:48:35;5.50;;;3.60;;
75554;SDS011;66087;53.126;17.960;2023-08-06T10:51:08;5.30;;;3.10;;
75554;SDS011;66087;53.126;17.960;2023-08-06T10:53:42;6.30;;;3.60;;
75554;SDS011;66087;53.126;17.960;2023-08-06T10:56:13;6.10;;;3.00;;
75554;SDS011;66087;53.126;17.960;2023-08-06T10:58:42;5.50;;;3.40;;
75554;SDS011;66087;53.126;17.960;2023-08-06T11:01:11;5.50;;;2.50;;
75554;SDS011;66087;53.126;17.960;2023-08-06T11:03:39;5.90;;;3.50;;
75554;SDS011;66087;53.126;17.960;2023-08-06T11:06:16;5.60;;;3.10;;
75554;SDS011;66087;53.126;17.960;2023-08-06T11:08:47;5.10;;;2.90;;
75554;SDS011;66087;53.126;17.960;2023-08-06T11:11:17;5.60;;;3.30;;
75554;SDS011;66087;53.126;17.960;2023-08-06T11:13:45;5.70;;;3.10;;
75554;SDS011;66087;53.126;17.960;2023-08-06T11:16:14;4.30;;;2.60;;
75554;SDS011;66087;53.126;17.960;2023-08-06T11:18:42;6.20;;;3.40;;
75554;SDS011;66087;53.126;17.960;2023-08-06T11:21:09;4.90;;;2.90;;
75554;SDS011;66087;53.126;17.960;2023-08-06T11:23:38;4.30;;;2.80;;
75554;SDS011;66087;53.126;17.960;2023-08-06T11:26:05;5.60;;;2.80;;
75554;SDS011;66087;53.126;17.960;2023-08-06T11:28:33;5.20;;;3.00;;
75554;SDS011;66087;53.126;17.960;2023-08-06T11:31:00;5.90;;;3.50;;
75554;SDS011;66087;53.126;17.960;2023-08-06T11:33:31;6.00;;;3.10;;
75554;SDS011;66087;53.126;17.960;2023-08-06T11:35:59;6.30;;;3.00;;
75554;SDS011;66087;53.126;17.960;2023-08-06T11:38:28;5.10;;;3.10;;
75554;SDS011;66087;53.126;17.960;2023-08-06T11:40:55;4.40;;;2.60;;
75554;SDS011;66087;53.126;17.960;2023-08-06T11:43:22;6.80;;;3.40;;
75554;SDS011;66087;53.126;17.960;2023-08-06T11:45:50;4.80;;;2.20;;
75554;SDS011;66087;53.126;17.960;2023-08-06T11:48:17;5.10;;;2.50;;
75554;SDS011;66087;53.126;17.960;2023-08-06T11:50:54;6.00;;;2.70;;
75554;SDS011;66087;53.126;17.960;2023-08-06T11:53:26;4.30;;;2.50;;
75554;SDS011;66087;53.126;17.960;2023-08-06T11:55:55;5.70;;;2.90;;
75554;SDS011;66087;53.126;17.960;2023-08-06T11:58:23;5.30;;;3.20;;
75554;SDS011;66087;53.126;17.960;2023-08-06T12:00:49;5.40;;;3.60;;
75554;SDS011;66087;53.126;17.960;2023-08-06T12:03:18;6.20;;;3.60;;
75554;SDS011;66087;53.126;17.960;2023-08-06T12:05:45;5.70;;;3.40;;
75554;SDS011;66087;53.126;17.960;2023-08-06T12:08:15;5.70;;;3.40;;
75554;SDS011;66087;53.126;17.960;2023-08-06T12:10:42;6.40;;;3.50;;
75554;SDS011;66087;53.126;17.960;2023-08-06T12:13:08;6.50;;;4.00;;
75554;SDS011;66087;53.126;17.960;2023-08-06T12:15:37;6.80;;;4.20;;
75554;SDS011;66087;53.126;17.960;2023-08-06T12:18:11;7.60;;;4.80;;
75554;SDS011;66087;53.126;17.960;2023-08-06T12:20:38;9.00;;;5.40;;
75554;SDS011;66087;53.126;17.960;2023-08-06T12:23:06;8.80;;;5.80;;
75554;SDS011;66087;53.126;17.960;2023-08-06T12:25:33;9.20;;;5.90;;
75554;SDS011;66087;53.126;17.960;2023-08-06T12:27:59;8.60;;;5.50;;
75554;SDS011;66087;53.126;17.960;2023-08-06T12:30:39;8.90;;;5.60;;
75554;SDS011;66087;53.126;17.960;2023-08-06T12:33:09;11.20;;;6.20;;
75554;SDS011;66087;53.126;17.960;2023-08-06T12:35:36;10.40;;;6.40;;
75554;SDS011;66087;53.126;17.960;2023-08-06T12:38:04;10.80;;;6.60;;
75554;SDS011;66087;53.126;17.960;2023-08-06T12:40:32;12.00;;;7.00;;
75554;SDS011;66087;53.126;17.960;2023-08-06T12:43:01;12.50;;;7.10;;
75554;SDS011;66087;53.126;17.960;2023-08-06T12:45:28;11.70;;;7.60;;
75554;SDS011;66087;53.126;17.960;2023-08-06T12:47:55;12.90;;;8.10;;
75554;SDS011;66087;53.126;17.960;2023-08-06T12:50:22;11.60;;;7.80;;
75554;SDS011;66087;53.126;17.960;2023-08-06T12:52:50;11.60;;;7.60;;
75554;SDS011;66087;53.126;17.960;2023-08-06T12:55:17;13.40;;;7.30;;
75554;SDS011;66087;53.126;17.960;2023-08-06T12:58:07;15.20;;;10.00;;
75554;SDS011;66087;53.126;17.960;2023-08-06T13:00:35;14.40;;;8.70;;
75554;SDS011;66087;53.126;17.960;2023-08-06T13:03:02;13.60;;;9.30;;
75554;SDS011;66087;53.126;17.960;2023-08-06T13:05:38;14.70;;;10.10;;
75554;SDS011;66087;53.126;17.960;2023-08-06T13:08:05;15.40;;;10.40;;
75554;SDS011;66087;53.126;17.960;2023-08-06T13:10:46;16.70;;;11.40;;
75554;SDS011;66087;53.126;17.960;2023-08-06T13:13:15;15.70;;;9.60;;
75554;SDS011;66087;53.126;17.960;2023-08-06T13:15:45;15.90;;;10.90;;
75554;SDS011;66087;53.126;17.960;2023-08-06T13:18:17;16.90;;;10.20;;
75554;SDS011;66087;53.126;17.960;2023-08-06T13:20:46;15.00;;;10.50;;
75554;SDS011;66087;53.126;17.960;2023-08-06T13:23:16;16.10;;;11.20;;
75554;SDS011;66087;53.126;17.960;2023-08-06T13:25:43;17.20;;;11.50;;
75554;SDS011;66087;53.126;17.960;2023-08-06T13:28:10;16.70;;;11.60;;
75554;SDS011;66087;53.126;17.960;2023-08-06T13:30:38;16.90;;;10.20;;
75554;SDS011;66087;53.126;17.960;2023-08-06T13:33:08;14.70;;;10.30;;
75554;SDS011;66087;53.126;17.960;2023-08-06T13:35:37;15.00;;;10.90;;
75554;SDS011;66087;53.126;17.960;2023-08-06T13:38:06;14.90;;;10.80;;
75554;SDS011;66087;53.126;17.960;2023-08-06T13:40:42;15.20;;;10.40;;
75554;SDS011;66087;53.126;17.960;2023-08-06T13:43:10;16.90;;;12.10;;
75554;SDS011;66087;53.126;17.960;2023-08-06T13:45:44;15.20;;;10.80;;
75554;SDS011;66087;53.126;17.960;2023-08-06T13:48:15;15.30;;;10.70;;
75554;SDS011;66087;53.126;17.960;2023-08-06T13:50:41;17.40;;;11.80;;
75554;SDS011;66087;53.126;17.960;2023-08-06T13:53:08;16.90;;;12.20;;
75554;SDS011;66087;53.126;17.960;2023-08-06T13:55:36;15.30;;;11.00;;
75554;SDS011;66087;53.126;17.960;2023-08-06T13:58:03;16.70;;;12.50;;
75554;SDS011;66087;53.126;17.960;2023-08-06T14:00:30;16.60;;;11.40;;
75554;SDS011;66087;53.126;17.960;2023-08-06T14:02:56;16.70;;;12.00;;
75554;SDS011;66087;53.126;17.960;2023-08-06T14:05:25;16.20;;;12.30;;
75554;SDS011;66087;53.126;17.960;2023-08-06T14:07:55;15.80;;;12.20;;
75554;SDS011;66087;53.126;17.960;2023-08-06T14:10:22;20.50;;;12.70;;
75554;SDS011;66087;53.126;17.960;2023-08-06T14:12:49;18.40;;;11.80;;
75554;SDS011;66087;53.126;17.960;2023-08-06T14:15:18;18.00;;;12.50;;
75554;SDS011;66087;53.126;17.960;2023-08-06T14:17:46;19.40;;;13.30;;
75554;SDS011;66087;53.126;17.960;2023-08-06T14:20:13;17.20;;;13.00;;
75554;SDS011;66087;53.126;17.960;2023-08-06T14:22:41;17.40;;;12.70;;
75554;SDS011;66087;53.126;17.960;2023-08-06T14:25:12;18.10;;;12.30;;
75554;SDS011;66087;53.126;17.960;2023-08-06T14:27:39;15.00;;;10.60;;
75554;SDS011;66087;53.126;17.960;2023-08-06T14:30:08;11.30;;;6.90;;
75554;SDS011;66087;53.126;17.960;2023-08-06T14:32:36;10.30;;;6.60;;
75554;SDS011;66087;53.126;17.960;2023-08-06T14:35:06;8.40;;;4.70;;
75554;SDS011;66087;53.126;17.960;2023-08-06T14:37:37;7.70;;;4.10;;
75554;SDS011;66087;53.126;17.960;2023-08-06T14:40:05;6.90;;;3.40;;
75554;SDS011;66087;53.126;17.960;2023-08-06T14:42:33;6.70;;;3.60;;